Time;durP1;ratioP1;P1;durP2;ratioP2;P2;SDS_P1;SDS_P2;PMS_P1;PMS_P2;Temp;Humidity;BMP_temperature;BMP_pressure;BME280_temperature;BME280_humidity;BME280_pressure;Samples;Min_cycle;Max_cycle;Signal;HPM_P1;HPM_P2
2021/10/09 00:00:07;;;;;;;6.07;5.47;;;17.00;78.30;;;;;;10414416;28;20218;-65
2021/10/09 00:05:30;;;;;;;6.80;6.03;;;17.00;78.30;;;;;;10414260;28;20233;-65
2021/10/09 00:10:53;;;;;;;6.33;5.73;;;17.00;78.30;;;;;;10426741;28;20197;-65
2021/10/09 00:16:16;;;;;;;6.50;5.60;;;17.00;78.30;;;;;;10453567;28;20221;-65
2021/10/09 00:21:43;;;;;;;6.60;5.30;;;16.90;78.10;;;;;;10449675;28;20561;-65
2021/10/09 00:27:05;;;;;;;5.93;5.33;;;16.90;78.10;;;;;;10413864;28;20206;-65
2021/10/09 00:32:28;;;;;;;6.30;5.70;;;16.90;78.10;;;;;;10452965;28;20204;-65
2021/10/09 00:37:51;;;;;;;6.07;5.47;;;17.00;78.20;;;;;;10452515;28;20221;-65
2021/10/09 00:43:13;;;;;;;6.47;5.77;;;17.00;78.10;;;;;;10455849;28;20212;-65
2021/10/09 00:48:36;;;;;;;6.73;5.87;;;17.00;78.10;;;;;;10450422;28;20597;-65
2021/10/09 00:54:01;;;;;;;6.10;5.53;;;16.90;78.10;;;;;;10449541;28;20227;-65
2021/10/09 00:59:26;;;;;;;8.37;5.77;;;17.00;78.10;;;;;;10419616;28;20300;-65
2021/10/09 01:04:51;;;;;;;7.00;5.33;;;17.00;78.10;;;;;;10451430;28;20233;-65
2021/10/09 01:10:14;;;;;;;6.00;5.40;;;17.00;78.10;;;;;;10452538;28;20185;-65
2021/10/09 01:15:37;;;;;;;6.73;5.47;;;16.90;77.90;;;;;;10445402;28;20213;-64
2021/10/09 01:21:01;;;;;;;5.93;5.23;;;17.00;77.90;;;;;;10451009;28;20220;-65
2021/10/09 01:26:23;;;;;;;6.70;5.47;;;16.90;77.80;;;;;;10442178;28;20680;-65
2021/10/09 01:31:46;;;;;;;5.97;5.27;;;16.90;77.80;;;;;;10413072;28;20200;-65
2021/10/09 01:37:09;;;;;;;6.07;5.23;;;16.90;77.80;;;;;;10451746;28;20216;-65
2021/10/09 01:42:31;;;;;;;6.07;5.43;;;17.00;77.80;;;;;;10451925;28;20193;-64
2021/10/09 01:47:53;;;;;;;6.07;5.47;;;16.90;77.70;;;;;;10432663;28;20213;-65
2021/10/09 01:53:17;;;;;;;6.77;5.73;;;16.90;77.70;;;;;;10414669;28;20200;-64
2021/10/09 01:58:39;;;;;;;6.27;5.27;;;16.90;77.70;;;;;;10442219;28;20238;-65
2021/10/09 02:04:02;;;;;;;7.00;5.50;;;16.90;77.60;;;;;;10442732;28;20228;-66
2021/10/09 02:09:26;;;;;;;6.73;5.43;;;16.90;77.70;;;;;;10453758;28;20412;-65
2021/10/09 02:14:52;;;;;;;6.20;5.53;;;16.90;77.70;;;;;;10450739;28;20224;-65
2021/10/09 02:26:02;;;;;;;7.03;5.63;;;16.90;77.50;;;;;;10392154;28;20655;-65
2021/10/09 02:31:24;;;;;;;7.90;5.57;;;16.90;77.60;;;;;;10409779;28;20194;-65
2021/10/09 02:36:46;;;;;;;7.40;5.33;;;16.90;77.40;;;;;;10408386;28;20712;-65
2021/10/09 02:42:10;;;;;;;6.10;5.50;;;16.90;77.40;;;;;;10427915;28;20649;-65
2021/10/09 02:47:32;;;;;;;7.33;5.77;;;16.90;77.30;;;;;;10434366;28;20225;-65
2021/10/09 02:52:54;;;;;;;7.53;5.50;;;16.90;77.20;;;;;;10442622;28;20213;-65
2021/10/09 02:58:18;;;;;;;6.40;5.37;;;16.90;77.20;;;;;;10414306;28;20225;-66
2021/10/09 03:03:40;;;;;;;5.90;5.23;;;16.90;77.30;;;;;;10415305;28;20221;-66
2021/10/09 03:09:02;;;;;;;6.40;5.50;;;16.90;77.10;;;;;;10436708;28;20194;-65
2021/10/09 03:14:26;;;;;;;6.03;5.00;;;16.90;77.00;;;;;;10433961;28;20292;-65
2021/10/09 03:19:48;;;;;;;6.43;5.60;;;16.90;76.90;;;;;;10456503;28;20996;-66
2021/10/09 03:25:10;;;;;;;6.40;5.40;;;16.80;76.90;;;;;;10457162;28;20730;-67
2021/10/09 03:30:34;;;;;;;5.83;4.70;;;16.90;77.00;;;;;;10447041;28;20193;-66
2021/10/09 03:35:56;;;;;;;7.47;5.60;;;16.80;76.90;;;;;;10415792;28;20218;-65
2021/10/09 03:41:18;;;;;;;6.70;5.97;;;16.80;76.90;;;;;;10413817;28;20221;-65
2021/10/09 03:46:44;;;;;;;6.40;5.60;;;16.80;77.30;;;;;;10434193;28;20731;-65
2021/10/09 03:57:45;;;;;;;6.10;5.10;;;16.80;76.70;;;;;;10418323;28;20209;-66
2021/10/09 04:03:09;;;;;;;5.57;4.80;;;16.80;76.70;;;;;;10420972;28;20216;-65
2021/10/09 04:08:31;;;;;;;5.93;5.10;;;16.80;76.70;;;;;;10413080;28;20213;-65
2021/10/09 04:13:53;;;;;;;5.77;5.13;;;16.80;76.70;;;;;;10428168;28;20224;-65
2021/10/09 04:19:16;;;;;;;6.00;5.40;;;16.80;76.60;;;;;;10434385;28;20217;-66
2021/10/09 04:24:38;;;;;;;5.77;5.07;;;16.80;76.60;;;;;;10413352;28;20224;-65
2021/10/09 04:30:01;;;;;;;7.17;5.20;;;16.80;76.50;;;;;;10442237;28;20226;-66
2021/10/09 04:35:24;;;;;;;9.33;5.60;;;16.80;76.50;;;;;;10450908;28;20217;-66
2021/10/09 04:40:46;;;;;;;5.83;4.97;;;16.80;76.50;;;;;;10454267;28;20213;-66
2021/10/09 04:46:08;;;;;;;6.80;4.90;;;16.80;76.30;;;;;;10449906;28;20213;-65
2021/10/09 04:51:32;;;;;;;5.83;5.13;;;16.80;76.40;;;;;;10412933;28;20198;-65
2021/10/09 04:56:54;;;;;;;5.60;5.03;;;16.80;76.40;;;;;;10451826;28;20220;-65
2021/10/09 05:02:16;;;;;;;6.13;5.50;;;16.80;76.30;;;;;;10452170;28;20213;-66
2021/10/09 05:07:40;;;;;;;6.57;5.37;;;16.80;76.30;;;;;;10455680;23;20232;-68
2021/10/09 05:13:02;;;;;;;5.57;4.93;;;16.80;76.30;;;;;;10400529;28;20205;-69
2021/10/09 05:18:24;;;;;;;5.80;5.20;;;16.80;76.20;;;;;;10417228;28;20222;-68
2021/10/09 05:23:47;;;;;;;5.97;4.87;;;16.80;76.10;;;;;;10412303;28;20201;-69
2021/10/09 05:29:14;;;;;;;6.43;5.30;;;16.80;76.10;;;;;;10438338;28;20220;-69
2021/10/09 05:34:36;;;;;;;5.67;4.90;;;16.80;76.10;;;;;;10442278;28;20217;-68
2021/10/09 05:40:00;;;;;;;6.47;5.20;;;16.80;76.10;;;;;;10414078;28;20224;-68
2021/10/09 05:45:22;;;;;;;9.03;4.80;;;16.80;76.10;;;;;;10412237;28;20214;-68
2021/10/09 05:50:49;;;;;;;6.43;4.27;;;16.80;75.90;;;;;;10413006;28;20580;-68
2021/10/09 05:56:20;;;;;;;6.40;4.60;;;16.80;75.90;;;;;;10418270;28;20259;-68
2021/10/09 06:02:03;;;;;;;6.00;5.17;;;16.80;75.80;;;;;;10452682;28;20220;-68
2021/10/09 06:47:17;;;;;;;6.33;4.70;;;16.80;75.70;;;;;;10420318;28;20297;-68
2021/10/09 07:04:00;;;;;;;6.90;4.87;;;16.90;75.80;;;;;;10426203;28;20205;-68
2021/10/09 07:09:22;;;;;;;6.57;5.37;;;16.80;75.60;;;;;;10419832;28;20186;-67
2021/10/09 07:14:44;;;;;;;6.47;4.87;;;16.80;75.70;;;;;;10429276;28;20221;-68
2021/10/09 07:20:10;;;;;;;5.67;4.67;;;16.80;75.70;;;;;;10378049;28;20704;-67
2021/10/09 07:25:32;;;;;;;8.10;5.33;;;16.80;75.70;;;;;;10378864;28;20214;-68
2021/10/09 07:30:54;;;;;;;6.73;6.07;;;16.80;75.80;;;;;;10378804;28;20210;-68
2021/10/09 07:36:18;;;;;;;6.80;5.03;;;16.80;75.90;;;;;;10395353;28;20210;-68
2021/10/09 07:41:40;;;;;;;9.37;5.27;;;16.80;76.10;;;;;;10385749;28;20298;-68
2021/10/09 07:47:02;;;;;;;6.30;4.93;;;16.80;76.10;;;;;;10421464;28;20573;-68
2021/10/09 07:52:25;;;;;;;13.60;5.70;;;16.80;76.10;;;;;;10418045;28;20201;-68
2021/10/09 07:57:47;;;;;;;7.80;5.53;;;16.80;76.10;;;;;;10434205;28;20225;-68
2021/10/09 08:03:10;;;;;;;6.00;5.40;;;16.80;76.20;;;;;;10418862;28;20190;-68
2021/10/09 08:08:33;;;;;;;6.87;5.33;;;16.80;76.10;;;;;;10419062;28;20218;-68
2021/10/09 08:13:55;;;;;;;5.50;4.60;;;16.80;76.20;;;;;;10418093;28;20202;-68
2021/10/09 08:19:17;;;;;;;7.13;4.90;;;16.70;76.20;;;;;;10423811;28;20684;-68
2021/10/09 08:24:45;;;;;;;6.43;5.03;;;16.80;76.30;;;;;;10418849;28;20688;-68
2021/10/09 08:36:01;;;;;;;6.50;5.20;;;16.80;76.20;;;;;;10378813;28;20206;-68
2021/10/09 08:41:25;;;;;;;6.90;4.77;;;16.80;76.20;;;;;;10401127;28;20583;-68
2021/10/09 08:46:47;;;;;;;7.77;5.00;;;16.70;76.20;;;;;;10387874;28;20213;-68
2021/10/09 08:52:09;;;;;;;5.93;4.53;;;16.80;76.20;;;;;;10416823;28;20198;-68
2021/10/09 08:57:36;;;;;;;6.70;4.77;;;16.80;76.30;;;;;;10417429;28;20232;-68
2021/10/09 09:03:04;;;;;;;9.83;5.30;;;16.80;76.30;;;;;;10416937;28;20228;-68
2021/10/09 09:08:50;;;;;;;5.53;4.80;;;16.80;76.20;;;;;;10416632;28;20213;-67
2021/10/09 09:26:08;;;;;;;6.43;5.10;;;16.80;76.20;;;;;;10421536;28;20209;-68
2021/10/09 09:31:49;;;;;;;8.07;5.13;;;16.80;76.20;;;;;;10429384;28;20221;-68
2021/10/09 09:37:39;;;;;;;8.00;5.10;;;16.80;76.20;;;;;;10417965;28;20224;-68
2021/10/09 09:43:02;;;;;;;6.10;4.83;;;16.80;76.20;;;;;;10416260;28;20268;-68
2021/10/09 09:48:25;;;;;;;6.60;5.10;;;16.80;76.30;;;;;;10439724;28;20224;-68
2021/10/09 09:53:49;;;;;;;7.60;4.97;;;16.70;76.20;;;;;;10438544;28;20216;-67
2021/10/09 09:59:12;;;;;;;6.33;4.90;;;16.80;76.20;;;;;;10456347;28;20216;-68
2021/10/09 10:04:36;;;;;;;5.03;4.37;;;16.70;76.10;;;;;;10445243;28;20232;-68
2021/10/09 10:09:58;;;;;;;5.93;4.77;;;16.80;76.20;;;;;;10423249;28;20194;-68
2021/10/09 10:15:20;;;;;;;6.30;4.93;;;16.70;76.20;;;;;;10422780;28;20214;-68
2021/10/09 10:20:52;;;;;;;5.70;4.70;;;16.70;76.20;;;;;;10423556;28;20213;-68
2021/10/09 10:26:24;;;;;;;5.47;4.70;;;16.70;76.30;;;;;;10428452;28;20214;-68
2021/10/09 10:32:14;;;;;;;6.63;4.70;;;16.80;76.30;;;;;;10422207;28;20193;-67
2021/10/09 10:37:38;;;;;;;5.47;4.60;;;16.80;76.10;;;;;;10419725;28;20233;-68
2021/10/09 10:43:40;;;;;;;5.53;4.27;;;16.70;76.10;;;;;;10423369;28;20561;-68
2021/10/09 10:49:06;;;;;;;6.03;4.53;;;16.80;76.20;;;;;;10424211;28;20588;-68
2021/10/09 10:54:39;;;;;;;5.63;4.90;;;16.70;76.30;;;;;;10419785;28;20553;-68
2021/10/09 11:00:15;;;;;;;6.27;4.90;;;16.70;76.40;;;;;;10378096;28;20210;-68
2021/10/09 11:05:38;;;;;;;5.50;4.00;;;16.70;76.40;;;;;;10413222;22;20233;-65
2021/10/09 11:11:02;;;;;;;8.20;4.40;;;16.70;76.50;;;;;;10439563;28;20232;-65
2021/10/09 11:16:29;;;;;;;6.93;4.87;;;16.80;76.70;;;;;;10449748;28;20667;-64
2021/10/09 11:21:54;;;;;;;6.53;4.80;;;16.70;76.70;;;;;;10414241;28;20218;-64
2021/10/09 11:27:21;;;;;;;7.17;4.80;;;16.70;76.80;;;;;;10411732;28;20678;-65
2021/10/09 11:32:45;;;;;;;7.23;4.73;;;16.70;76.80;;;;;;10435640;28;20220;-65
2021/10/09 11:38:18;;;;;;;6.17;4.47;;;16.70;77.40;;;;;;10453003;28;20695;-65
2021/10/09 11:43:47;;;;;;;5.23;4.57;;;16.70;76.80;;;;;;10412386;28;20204;-65
2021/10/09 11:55:01;;;;;;;5.50;4.47;;;16.70;76.90;;;;;;10412834;28;20241;-65
2021/10/09 12:00:41;;;;;;;5.50;4.60;;;16.70;76.90;;;;;;10411189;28;20226;-65
2021/10/09 12:06:09;;;;;;;5.53;4.00;;;16.70;76.80;;;;;;10412474;28;20564;-65
2021/10/09 12:11:31;;;;;;;6.87;4.33;;;16.70;77.00;;;;;;10411683;28;20933;-65
2021/10/09 12:16:58;;;;;;;5.10;4.00;;;16.70;77.00;;;;;;10411342;28;20576;-65
2021/10/09 12:22:20;;;;;;;6.33;4.40;;;16.70;77.00;;;;;;10410117;28;20573;-66
2021/10/09 12:27:44;;;;;;;5.40;4.23;;;16.70;77.10;;;;;;10409414;28;20217;-66
2021/10/09 12:33:07;;;;;;;6.30;4.17;;;16.70;77.00;;;;;;10429450;28;20274;-66
2021/10/09 12:38:39;;;;;;;4.27;3.70;;;16.70;77.10;;;;;;10452468;28;20579;-66
2021/10/09 12:44:01;;;;;;;6.57;4.07;;;16.70;77.10;;;;;;10452360;28;20609;-66
2021/10/09 12:49:25;;;;;;;5.67;4.23;;;16.70;77.10;;;;;;10417134;28;20209;-67
2021/10/09 12:54:47;;;;;;;4.97;4.17;;;16.70;77.10;;;;;;10408654;28;20206;-66
2021/10/09 13:00:11;;;;;;;5.13;3.90;;;16.70;77.60;;;;;;10407165;28;20224;-67
2021/10/09 13:05:34;;;;;;;5.13;3.90;;;16.70;77.10;;;;;;10407923;28;20194;-67
2021/10/09 13:10:59;;;;;;;4.97;3.93;;;16.70;77.00;;;;;;10409057;28;20220;-66
2021/10/09 13:16:21;;;;;;;4.27;3.87;;;16.70;77.00;;;;;;10406956;28;20194;-67
2021/10/09 13:21:45;;;;;;;4.43;3.83;;;16.70;77.00;;;;;;10403004;28;20295;-67
2021/10/09 13:27:07;;;;;;;5.13;3.73;;;16.70;77.00;;;;;;10405965;28;20559;-67
2021/10/09 13:32:29;;;;;;;4.77;3.70;;;16.70;77.00;;;;;;10409121;28;20200;-67
2021/10/09 13:37:56;;;;;;;5.07;4.10;;;16.70;77.00;;;;;;10407963;28;20586;-67
2021/10/09 13:43:18;;;;;;;4.23;3.60;;;16.70;77.10;;;;;;10405869;28;20213;-67
2021/10/09 13:48:41;;;;;;;4.17;3.33;;;16.70;77.00;;;;;;10404330;28;20229;-67
2021/10/09 13:54:05;;;;;;;4.37;3.30;;;16.70;77.00;;;;;;10408643;28;20202;-67
2021/10/09 13:59:28;;;;;;;5.07;3.90;;;16.70;76.90;;;;;;10407189;28;20707;-67
2021/10/09 14:04:50;;;;;;;6.63;3.93;;;16.70;76.90;;;;;;10402428;28;20205;-67
2021/10/09 14:10:16;;;;;;;3.97;3.50;;;16.70;76.80;;;;;;10406439;28;20221;-66
2021/10/09 14:15:39;;;;;;;5.87;3.60;;;16.70;76.80;;;;;;10377437;28;20289;-66
2021/10/09 14:21:01;;;;;;;3.70;3.40;;;16.70;76.80;;;;;;10405491;28;20253;-66
2021/10/09 14:26:24;;;;;;;3.67;3.10;;;16.70;76.90;;;;;;10406107;28;20194;-67
2021/10/09 14:31:46;;;;;;;3.43;3.00;;;16.70;76.80;;;;;;10408202;28;20210;-67
2021/10/09 14:37:09;;;;;;;3.90;3.50;;;16.60;76.80;;;;;;10406061;28;20202;-66
2021/10/09 14:42:32;;;;;;;4.70;3.70;;;16.70;77.00;;;;;;10406279;28;20210;-67
2021/10/09 14:47:59;;;;;;;4.77;3.37;;;16.60;76.90;;;;;;10408536;28;20228;-66
2021/10/09 15:22:08;;;;;;;3.57;2.83;;;16.60;76.60;;;;;;10330918;28;20762;-66
2021/10/09 15:27:30;;;;;;;4.53;3.30;;;16.70;76.40;;;;;;10411773;28;20197;-68
2021/10/09 15:32:54;;;;;;;3.60;3.13;;;16.60;76.30;;;;;;10404061;28;20567;-66
2021/10/09 15:38:16;;;;;;;4.67;3.43;;;16.70;76.40;;;;;;10402891;28;20213;-65
2021/10/09 15:43:38;;;;;;;3.57;2.93;;;16.70;76.30;;;;;;10397507;28;20227;-65
2021/10/09 15:49:02;;;;;;;3.47;3.07;;;16.70;76.30;;;;;;10401556;28;20221;-66
2021/10/09 15:54:24;;;;;;;5.57;3.17;;;16.70;76.30;;;;;;10402242;28;20194;-66
2021/10/09 15:59:46;;;;;;;3.60;3.23;;;16.60;76.30;;;;;;10411128;28;20210;-67
2021/10/09 16:05:12;;;;;;;4.67;3.20;;;16.70;76.30;;;;;;10409795;28;20210;-66
2021/10/09 16:10:35;;;;;;;3.83;3.17;;;16.70;76.40;;;;;;10408775;28;20209;-64
2021/10/09 16:15:57;;;;;;;4.27;2.97;;;16.70;76.40;;;;;;10407015;28;20202;-66
2021/10/09 16:21:20;;;;;;;4.67;3.53;;;16.70;76.40;;;;;;10398332;28;20214;-63
2021/10/09 16:26:43;;;;;;;4.43;3.03;;;16.70;76.40;;;;;;10399178;28;20217;-64
2021/10/09 16:32:06;;;;;;;3.77;3.07;;;16.70;76.40;;;;;;10398565;28;20211;-63
2021/10/09 16:37:30;;;;;;;3.57;3.20;;;16.70;76.30;;;;;;10395926;28;20205;-63
2021/10/09 16:42:52;;;;;;;3.10;2.70;;;16.70;76.30;;;;;;10398974;28;20233;-63
2021/10/09 16:48:14;;;;;;;3.73;2.70;;;16.70;76.30;;;;;;10399235;28;20703;-62
2021/10/09 16:53:37;;;;;;;4.77;3.00;;;16.70;76.30;;;;;;10404865;28;20209;-64
2021/10/09 16:59:00;;;;;;;3.83;2.97;;;16.70;76.20;;;;;;10408734;28;20231;-64
2021/10/09 17:04:22;;;;;;;3.97;3.13;;;16.70;76.20;;;;;;10406311;28;20218;-64
2021/10/09 17:09:55;;;;;;;4.30;3.20;;;16.70;76.20;;;;;;10422665;22;20248;-67
2021/10/09 17:15:17;;;;;;;5.37;3.20;;;16.70;76.00;;;;;;10410135;28;20202;-66
2021/10/09 17:20:39;;;;;;;4.47;3.03;;;16.70;76.10;;;;;;10409956;28;20218;-67
2021/10/09 17:26:05;;;;;;;5.00;2.83;;;16.70;76.00;;;;;;10406767;28;20194;-67
2021/10/09 17:31:27;;;;;;;4.50;3.07;;;16.70;75.80;;;;;;10402582;28;20221;-66
2021/10/09 17:36:50;;;;;;;6.90;3.47;;;16.70;75.70;;;;;;10409567;28;20205;-63
2021/10/09 17:42:13;;;;;;;3.63;2.50;;;16.70;75.70;;;;;;10406405;28;20226;-65
2021/10/09 17:47:36;;;;;;;7.97;3.83;;;16.70;75.60;;;;;;10401268;28;20520;-65
2021/10/09 17:52:59;;;;;;;5.37;3.40;;;17.20;73.90;;;;;;10402332;28;20268;-66
2021/10/09 17:58:23;;;;;;;54.38;6.88;;;17.10;73.30;;;;;;10401569;28;20483;-65
2021/10/09 18:03:45;;;;;;;33.85;5.72;;;17.30;72.30;;;;;;10400353;28;20441;-65
2021/10/09 18:09:09;;;;;;;27.43;6.23;;;17.50;71.50;;;;;;10398835;28;20594;-64
2021/10/09 18:14:33;;;;;;;15.43;3.97;;;17.10;72.40;;;;;;10390360;28;20287;-65
2021/10/09 18:19:55;;;;;;;14.20;3.80;;;16.90;73.40;;;;;;10395702;28;20240;-65
2021/10/09 18:25:17;;;;;;;14.47;4.37;;;16.80;74.00;;;;;;10397797;28;20202;-65
2021/10/09 18:30:41;;;;;;;8.30;3.70;;;16.80;74.30;;;;;;10406991;28;20229;-65
2021/10/09 18:36:03;;;;;;;7.97;3.47;;;16.70;74.50;;;;;;10409029;28;20498;-65
2021/10/09 18:41:25;;;;;;;8.73;3.83;;;16.70;74.70;;;;;;10390355;28;20320;-65
2021/10/09 18:46:49;;;;;;;5.30;3.07;;;16.70;74.30;;;;;;10408129;28;20205;-65
2021/10/09 18:52:12;;;;;;;4.87;3.53;;;16.70;74.00;;;;;;10405550;28;20205;-65
2021/10/09 18:57:35;;;;;;;8.53;3.40;;;16.70;74.30;;;;;;10408776;28;20221;-64
2021/10/09 19:03:00;;;;;;;4.90;3.60;;;16.70;74.30;;;;;;10404049;28;20308;-65
2021/10/09 19:08:22;;;;;;;5.50;3.40;;;16.70;74.30;;;;;;10406733;28;20229;-65
2021/10/09 19:13:44;;;;;;;4.47;3.03;;;16.70;74.40;;;;;;10407152;28;20201;-65
2021/10/09 19:19:08;;;;;;;4.53;3.30;;;16.70;74.20;;;;;;10406265;28;20221;-65
2021/10/09 19:24:30;;;;;;;3.97;3.20;;;16.70;74.20;;;;;;10407484;28;20217;-65
2021/10/09 19:29:52;;;;;;;4.50;3.10;;;16.70;74.30;;;;;;10395350;28;20563;-65
2021/10/09 19:35:28;;;;;;;5.17;3.60;;;16.70;74.20;;;;;;10407556;28;20197;-65
2021/10/09 19:40:50;;;;;;;4.83;3.40;;;16.70;74.50;;;;;;10407456;28;20228;-65
2021/10/09 19:46:12;;;;;;;6.63;3.40;;;16.70;74.60;;;;;;10411875;28;20549;-65
2021/10/09 19:51:44;;;;;;;4.27;3.10;;;16.70;74.70;;;;;;10411449;28;20216;-65
2021/10/09 19:57:07;;;;;;;4.50;3.10;;;16.70;74.80;;;;;;10410390;28;20595;-65
2021/10/09 20:02:29;;;;;;;4.30;3.73;;;16.60;74.60;;;;;;10411269;28;20214;-65
2021/10/09 20:07:53;;;;;;;3.87;2.97;;;16.60;74.50;;;;;;10411440;28;20229;-64
2021/10/09 20:13:15;;;;;;;5.33;3.20;;;16.60;74.60;;;;;;10413026;28;20817;-65
2021/10/09 20:18:37;;;;;;;4.10;3.27;;;16.60;74.50;;;;;;10407743;28;20232;-65
2021/10/09 20:24:00;;;;;;;5.07;3.03;;;16.60;74.40;;;;;;10408893;28;20714;-65
2021/10/09 20:29:23;;;;;;;4.23;3.30;;;16.60;74.40;;;;;;10410699;28;20229;-65
2021/10/09 20:34:45;;;;;;;3.57;2.80;;;16.60;74.20;;;;;;10408826;28;20663;-65
2021/10/09 20:40:09;;;;;;;3.83;3.03;;;16.60;74.40;;;;;;10411413;28;20214;-65
2021/10/09 20:45:32;;;;;;;5.77;3.07;;;16.60;74.30;;;;;;10407824;28;20194;-65
2021/10/09 20:50:54;;;;;;;5.07;3.27;;;16.60;74.20;;;;;;10407890;28;20295;-65
2021/10/09 20:56:19;;;;;;;3.77;3.17;;;16.60;74.20;;;;;;10412324;28;20202;-65
2021/10/09 21:01:41;;;;;;;5.47;3.27;;;16.60;74.00;;;;;;10406009;28;20694;-65
2021/10/09 21:07:13;;;;;;;3.83;3.07;;;16.60;74.10;;;;;;10408732;28;20205;-65
2021/10/09 21:12:43;;;;;;;3.70;3.17;;;16.60;74.20;;;;;;10408545;28;20186;-65
2021/10/09 21:23:45;;;;;;;4.73;3.17;;;16.60;74.10;;;;;;10406864;28;20256;-65
2021/10/09 21:29:09;;;;;;;4.03;3.17;;;16.60;74.00;;;;;;10405906;28;20733;-64
2021/10/09 21:34:31;;;;;;;3.20;2.80;;;16.60;73.80;;;;;;10407483;28;20198;-65
2021/10/09 21:39:54;;;;;;;4.60;2.80;;;16.50;73.90;;;;;;10407513;28;20217;-65
2021/10/09 21:45:17;;;;;;;4.47;3.00;;;16.60;74.10;;;;;;10408296;28;20587;-65
2021/10/09 21:50:39;;;;;;;3.90;3.07;;;16.60;73.90;;;;;;10372845;28;20616;-65
2021/10/09 21:56:01;;;;;;;3.67;3.20;;;16.60;74.00;;;;;;10368626;28;20198;-65
2021/10/09 22:01:34;;;;;;;3.57;2.93;;;16.60;73.70;;;;;;10403625;28;20221;-64
2021/10/09 22:07:24;;;;;;;4.33;3.20;;;16.60;74.00;;;;;;10409599;28;20200;-65
2021/10/09 22:18:35;;;;;;;4.53;3.10;;;16.60;73.80;;;;;;10409923;28;20243;-65
2021/10/09 22:35:20;;;;;;;4.87;3.00;;;16.50;73.50;;;;;;10393768;28;20663;-66
2021/10/09 22:40:43;;;;;;;4.60;3.07;;;16.60;73.80;;;;;;10406397;28;20217;-65
2021/10/09 22:46:05;;;;;;;4.30;3.00;;;16.50;73.50;;;;;;10403182;28;20651;-66
2021/10/09 22:51:29;;;;;;;4.90;2.67;;;16.50;73.30;;;;;;10367387;28;20206;-66
2021/10/09 22:56:51;;;;;;;3.50;3.00;;;16.60;73.70;;;;;;10407960;28;20205;-65
2021/10/09 23:02:13;;;;;;;4.13;3.07;;;16.50;73.20;;;;;;10406198;28;20560;-65
2021/10/09 23:07:37;;;;;;;3.27;2.97;;;16.50;73.30;;;;;;10419193;22;20230;-64
2021/10/09 23:12:59;;;;;;;3.30;2.57;;;16.50;73.50;;;;;;10372782;28;20544;-64
2021/10/09 23:18:21;;;;;;;4.00;3.00;;;16.50;73.40;;;;;;10401192;28;20214;-64
2021/10/09 23:23:45;;;;;;;3.37;2.60;;;16.50;73.40;;;;;;10414689;28;20245;-64
2021/10/09 23:29:07;;;;;;;5.17;3.37;;;16.50;73.50;;;;;;10415702;28;20228;-64
2021/10/09 23:34:29;;;;;;;4.70;3.20;;;16.50;73.30;;;;;;10383734;28;20707;-64
2021/10/09 23:39:53;;;;;;;3.33;2.87;;;16.50;73.20;;;;;;10401617;28;20213;-64
2021/10/09 23:45:15;;;;;;;4.63;3.40;;;16.50;73.20;;;;;;10388676;28;20215;-64
2021/10/09 23:50:38;;;;;;;4.10;3.20;;;16.50;73.00;;;;;;10380912;28;20297;-64
2021/10/09 23:56:02;;;;;;;3.03;2.73;;;16.50;72.90;;;;;;10413718;28;20201;-64
